Aérodrome :
LOGIN :

S'inscrire | Disclaimer

   EN    FR    IT 

 










Légende :    VFR   VFR Marginal   IFR   IFR Intensif   IFR Très Intensif
Visi : 
Plafond : 
>= 8 km
>= 3000ft
5 à 8 km
1000 à 3000 ft
1500m à 5 km
500 à 1000 ft
800 à 1500m
200 à 500 ft
< 800m
< 200 ft
Symboles :   Orages  Brouillard  Fortes neiges  Fortes précipitations  Vent > 20 kt
SIGMETs :   Divers  Orages  Givrage  Turbulence  Onde Orograph.  Cendres Volcan.






- Altitude de l'aérodrome : 276 ft


LYVR - Vršac International

DERNIER METAR :
  • 051630Z 00000KT CAVOK M00/M02 Q1028 NOSIG

METARs EXPIRÉS :
  • 051600Z VRB01KT CAVOK 00/M01 Q1028 NOSIG
  • 051500Z 07002KT CAVOK 04/M01 Q1028 NOSIG
  • 051430Z 02002KT CAVOK 05/M01 Q1028 NOSIG
  • 051400Z 01004KT 350V070 CAVOK 06/M01 Q1028 NOSIG

TAF TAF LYVR
Valide du 05 à 12h jusqu'au 06 à 12h UTC


051100Z 0512/0612 14006KT CAVOK TX07/0512Z TNM03/0605Z
TEMPO 0512/0515 14015KT
BECMG 0600/0602 1500 BR
PROB30
TEMPO 0603/0606 0600 FZFG
BECMG 0607/0609 6000 NSW



MET'MAP, la Météo Aéronautique d'un coup d'oeil ! - Copyright ORBIFLY Décembre 2007 - Disclaimer

ORBIFLY MET'MAP TEAM :

Programmation & Développement : Alexandra Zaïnal
Sur une idée originale de : Baudouin d'Aumeries
Assistance à la programmation : Marc-Olivier Méhu
Soutien technique & logistique : Manuel Goepfert

Contact : metmap@orbifly.com




SOURCES & CREDITS :

   NOAA